Terminal Aerodrome Forecast
Issued by NWS

Current Version | Previous Version | Text Only | Print | Product List | Glossary Off
Versions: 1 2 3 4 5 6 7 8 9 10 11 12 13 14 15 16 17

000
FTUS44 KSJT 241737
TAFJCT
TAF
KJCT 241737Z 2418/2518 06015KT P6SM BKN015 BKN050
     FM242000 06010KT P6SM BKN050
     FM250200 06008KT P6SM BKN015
     FM251500 08006KT P6SM BKN050=

USA.gov is the U.S. government's official web portal to all federal, state and local government web resources and services.